sensor_id;sensor_type;location;lat;lon;timestamp;P1;durP1;ratioP1;P2;durP2;ratioP2
4138;SDS011;2083;51.034;6.996;2022-07-05T00:02:06;4.10;;;3.80;;
4138;SDS011;2083;51.034;6.996;2022-07-05T00:04:32;8.73;;;3.83;;
4138;SDS011;2083;51.034;6.996;2022-07-05T00:06:58;4.13;;;3.90;;
4138;SDS011;2083;51.034;6.996;2022-07-05T00:09:42;5.13;;;4.20;;
4138;SDS011;2083;51.034;6.996;2022-07-05T00:12:09;6.27;;;3.73;;
4138;SDS011;2083;51.034;6.996;2022-07-05T00:14:35;4.57;;;3.90;;
4138;SDS011;2083;51.034;6.996;2022-07-05T00:17:02;4.23;;;3.90;;
4138;SDS011;2083;51.034;6.996;2022-07-05T00:19:28;4.33;;;4.03;;
4138;SDS011;2083;51.034;6.996;2022-07-05T00:21:54;3.97;;;3.67;;
4138;SDS011;2083;51.034;6.996;2022-07-05T00:24:20;5.33;;;4.33;;
4138;SDS011;2083;51.034;6.996;2022-07-05T00:26:46;5.10;;;4.10;;
4138;SDS011;2083;51.034;6.996;2022-07-05T00:29:12;9.83;;;3.80;;
4138;SDS011;2083;51.034;6.996;2022-07-05T00:31:38;9.90;;;3.67;;
4138;SDS011;2083;51.034;6.996;2022-07-05T00:34:04;6.93;;;4.60;;
4138;SDS011;2083;51.034;6.996;2022-07-05T00:36:30;4.63;;;3.90;;
4138;SDS011;2083;51.034;6.996;2022-07-05T00:38:56;8.13;;;3.77;;
4138;SDS011;2083;51.034;6.996;2022-07-05T00:41:22;4.63;;;4.23;;
4138;SDS011;2083;51.034;6.996;2022-07-05T00:43:52;4.20;;;3.87;;
4138;SDS011;2083;51.034;6.996;2022-07-05T00:46:18;5.93;;;4.10;;
4138;SDS011;2083;51.034;6.996;2022-07-05T00:48:44;4.40;;;4.00;;
4138;SDS011;2083;51.034;6.996;2022-07-05T00:51:10;6.47;;;3.33;;
4138;SDS011;2083;51.034;6.996;2022-07-05T00:53:36;8.73;;;4.23;;
4138;SDS011;2083;51.034;6.996;2022-07-05T00:56:02;10.57;;;3.90;;
4138;SDS011;2083;51.034;6.996;2022-07-05T00:58:28;4.00;;;3.60;;
4138;SDS011;2083;51.034;6.996;2022-07-05T01:00:55;5.67;;;4.13;;
4138;SDS011;2083;51.034;6.996;2022-07-05T01:03:21;4.87;;;4.47;;
4138;SDS011;2083;51.034;6.996;2022-07-05T01:05:47;4.20;;;4.00;;
4138;SDS011;2083;51.034;6.996;2022-07-05T01:08:13;8.00;;;4.13;;
4138;SDS011;2083;51.034;6.996;2022-07-05T01:10:40;4.77;;;4.20;;
4138;SDS011;2083;51.034;6.996;2022-07-05T01:13:07;4.50;;;3.80;;
4138;SDS011;2083;51.034;6.996;2022-07-05T01:15:34;5.07;;;4.67;;
4138;SDS011;2083;51.034;6.996;2022-07-05T01:18:00;4.80;;;4.20;;
4138;SDS011;2083;51.034;6.996;2022-07-05T01:20:26;4.33;;;4.03;;
4138;SDS011;2083;51.034;6.996;2022-07-05T01:22:56;6.90;;;4.50;;
4138;SDS011;2083;51.034;6.996;2022-07-05T01:25:25;5.23;;;4.83;;
4138;SDS011;2083;51.034;6.996;2022-07-05T01:27:51;4.77;;;4.00;;
4138;SDS011;2083;51.034;6.996;2022-07-05T01:30:18;5.93;;;5.33;;
4138;SDS011;2083;51.034;6.996;2022-07-05T01:32:44;8.27;;;4.77;;
4138;SDS011;2083;51.034;6.996;2022-07-05T01:35:10;5.50;;;5.10;;
4138;SDS011;2083;51.034;6.996;2022-07-05T01:37:36;6.50;;;5.40;;
4138;SDS011;2083;51.034;6.996;2022-07-05T01:40:03;5.07;;;4.70;;
4138;SDS011;2083;51.034;6.996;2022-07-05T01:42:29;5.13;;;4.77;;
4138;SDS011;2083;51.034;6.996;2022-07-05T01:44:55;13.77;;;5.20;;
4138;SDS011;2083;51.034;6.996;2022-07-05T01:47:21;5.97;;;5.20;;
4138;SDS011;2083;51.034;6.996;2022-07-05T01:49:48;6.43;;;5.40;;
4138;SDS011;2083;51.034;6.996;2022-07-05T01:52:16;5.77;;;5.40;;
4138;SDS011;2083;51.034;6.996;2022-07-05T01:54:42;6.77;;;5.93;;
4138;SDS011;2083;51.034;6.996;2022-07-05T01:57:08;5.23;;;4.87;;
4138;SDS011;2083;51.034;6.996;2022-07-05T01:59:35;5.53;;;5.13;;
4138;SDS011;2083;51.034;6.996;2022-07-05T02:02:03;6.03;;;5.40;;
4138;SDS011;2083;51.034;6.996;2022-07-05T02:04:30;7.60;;;5.60;;
4138;SDS011;2083;51.034;6.996;2022-07-05T02:06:56;5.30;;;4.80;;
4138;SDS011;2083;51.034;6.996;2022-07-05T02:09:22;10.70;;;6.20;;
4138;SDS011;2083;51.034;6.996;2022-07-05T02:11:48;5.73;;;5.33;;
4138;SDS011;2083;51.034;6.996;2022-07-05T02:14:14;5.23;;;4.83;;
4138;SDS011;2083;51.034;6.996;2022-07-05T02:16:40;5.83;;;5.17;;
4138;SDS011;2083;51.034;6.996;2022-07-05T02:19:06;4.90;;;4.60;;
4138;SDS011;2083;51.034;6.996;2022-07-05T02:21:32;5.20;;;4.90;;
4138;SDS011;2083;51.034;6.996;2022-07-05T02:23:58;7.10;;;4.80;;
4138;SDS011;2083;51.034;6.996;2022-07-05T02:26:24;5.97;;;4.40;;
4138;SDS011;2083;51.034;6.996;2022-07-05T02:28:50;6.10;;;4.80;;
4138;SDS011;2083;51.034;6.996;2022-07-05T02:31:16;9.13;;;4.10;;
4138;SDS011;2083;51.034;6.996;2022-07-05T02:33:44;4.97;;;4.67;;
4138;SDS011;2083;51.034;6.996;2022-07-05T02:36:11;4.67;;;4.27;;
4138;SDS011;2083;51.034;6.996;2022-07-05T02:38:37;4.67;;;4.27;;
4138;SDS011;2083;51.034;6.996;2022-07-05T02:41:04;5.33;;;4.30;;
4138;SDS011;2083;51.034;6.996;2022-07-05T02:43:30;4.50;;;4.10;;
4138;SDS011;2083;51.034;6.996;2022-07-05T02:45:57;5.50;;;5.00;;
4138;SDS011;2083;51.034;6.996;2022-07-05T02:48:23;5.40;;;4.73;;
4138;SDS011;2083;51.034;6.996;2022-07-05T02:50:49;5.07;;;4.67;;
4138;SDS011;2083;51.034;6.996;2022-07-05T02:53:14;4.70;;;3.97;;
4138;SDS011;2083;51.034;6.996;2022-07-05T02:55:40;5.20;;;4.80;;
4138;SDS011;2083;51.034;6.996;2022-07-05T02:58:06;5.87;;;5.23;;
4138;SDS011;2083;51.034;6.996;2022-07-05T03:00:32;5.47;;;5.07;;
4138;SDS011;2083;51.034;6.996;2022-07-05T03:02:58;4.83;;;4.43;;
4138;SDS011;2083;51.034;6.996;2022-07-05T03:05:24;5.17;;;4.70;;
4138;SDS011;2083;51.034;6.996;2022-07-05T03:07:50;6.60;;;6.00;;
4138;SDS011;2083;51.034;6.996;2022-07-05T03:10:16;4.30;;;4.10;;
4138;SDS011;2083;51.034;6.996;2022-07-05T03:12:42;9.97;;;6.27;;
4138;SDS011;2083;51.034;6.996;2022-07-05T03:15:08;5.63;;;5.33;;
4138;SDS011;2083;51.034;6.996;2022-07-05T03:17:34;9.40;;;5.40;;
4138;SDS011;2083;51.034;6.996;2022-07-05T03:20:00;6.83;;;5.47;;
4138;SDS011;2083;51.034;6.996;2022-07-05T03:22:26;6.53;;;5.23;;
4138;SDS011;2083;51.034;6.996;2022-07-05T03:24:52;4.73;;;4.33;;
4138;SDS011;2083;51.034;6.996;2022-07-05T03:27:18;8.20;;;4.90;;
4138;SDS011;2083;51.034;6.996;2022-07-05T03:29:44;6.70;;;4.77;;
4138;SDS011;2083;51.034;6.996;2022-07-05T03:32:10;5.90;;;5.33;;
4138;SDS011;2083;51.034;6.996;2022-07-05T03:34:36;5.53;;;4.73;;
4138;SDS011;2083;51.034;6.996;2022-07-05T03:37:03;5.07;;;4.87;;
4138;SDS011;2083;51.034;6.996;2022-07-05T03:39:29;5.30;;;4.77;;
4138;SDS011;2083;51.034;6.996;2022-07-05T03:41:55;5.60;;;5.20;;
4138;SDS011;2083;51.034;6.996;2022-07-05T03:44:21;9.07;;;5.07;;
4138;SDS011;2083;51.034;6.996;2022-07-05T03:46:47;4.87;;;4.50;;
4138;SDS011;2083;51.034;6.996;2022-07-05T03:49:13;4.77;;;4.57;;
4138;SDS011;2083;51.034;6.996;2022-07-05T03:51:39;7.83;;;4.90;;
4138;SDS011;2083;51.034;6.996;2022-07-05T03:54:05;13.33;;;5.47;;
4138;SDS011;2083;51.034;6.996;2022-07-05T03:56:31;6.30;;;5.70;;
4138;SDS011;2083;51.034;6.996;2022-07-05T03:58:57;13.93;;;4.97;;
4138;SDS011;2083;51.034;6.996;2022-07-05T04:01:23;12.30;;;4.37;;
4138;SDS011;2083;51.034;6.996;2022-07-05T04:03:49;4.50;;;4.30;;
4138;SDS011;2083;51.034;6.996;2022-07-05T04:06:15;5.10;;;4.50;;
4138;SDS011;2083;51.034;6.996;2022-07-05T04:08:41;4.83;;;4.57;;
4138;SDS011;2083;51.034;6.996;2022-07-05T04:11:07;4.10;;;3.80;;
4138;SDS011;2083;51.034;6.996;2022-07-05T04:13:34;8.30;;;4.50;;
4138;SDS011;2083;51.034;6.996;2022-07-05T04:16:00;7.37;;;4.10;;
4138;SDS011;2083;51.034;6.996;2022-07-05T04:18:26;4.80;;;3.87;;
4138;SDS011;2083;51.034;6.996;2022-07-05T04:20:52;3.90;;;3.40;;
4138;SDS011;2083;51.034;6.996;2022-07-05T04:23:18;8.07;;;3.17;;
4138;SDS011;2083;51.034;6.996;2022-07-05T04:25:44;5.80;;;3.63;;
4138;SDS011;2083;51.034;6.996;2022-07-05T04:28:10;4.60;;;4.03;;
4138;SDS011;2083;51.034;6.996;2022-07-05T04:30:36;10.10;;;3.63;;
4138;SDS011;2083;51.034;6.996;2022-07-05T04:33:02;3.80;;;3.50;;
4138;SDS011;2083;51.034;6.996;2022-07-05T04:35:28;4.60;;;3.50;;
4138;SDS011;2083;51.034;6.996;2022-07-05T04:37:54;3.87;;;3.50;;
4138;SDS011;2083;51.034;6.996;2022-07-05T04:40:20;8.17;;;3.50;;
4138;SDS011;2083;51.034;6.996;2022-07-05T04:42:46;4.83;;;2.83;;
4138;SDS011;2083;51.034;6.996;2022-07-05T04:45:12;8.43;;;4.00;;
4138;SDS011;2083;51.034;6.996;2022-07-05T04:47:38;4.43;;;3.80;;
4138;SDS011;2083;51.034;6.996;2022-07-05T04:50:04;4.73;;;3.83;;
4138;SDS011;2083;51.034;6.996;2022-07-05T04:52:30;6.50;;;3.90;;
4138;SDS011;2083;51.034;6.996;2022-07-05T04:54:56;3.73;;;3.20;;
4138;SDS011;2083;51.034;6.996;2022-07-05T04:57:22;3.60;;;3.27;;
4138;SDS011;2083;51.034;6.996;2022-07-05T04:59:48;3.50;;;3.20;;
4138;SDS011;2083;51.034;6.996;2022-07-05T05:02:14;4.03;;;3.00;;
4138;SDS011;2083;51.034;6.996;2022-07-05T05:04:40;1.40;;;1.30;;
4138;SDS011;2083;51.034;6.996;2022-07-05T05:07:06;6.07;;;3.90;;
4138;SDS011;2083;51.034;6.996;2022-07-05T05:09:32;4.20;;;4.00;;
4138;SDS011;2083;51.034;6.996;2022-07-05T05:11:58;4.67;;;3.70;;
4138;SDS011;2083;51.034;6.996;2022-07-05T05:14:24;3.40;;;3.20;;
4138;SDS011;2083;51.034;6.996;2022-07-05T05:16:50;3.10;;;2.97;;
4138;SDS011;2083;51.034;6.996;2022-07-05T05:19:16;6.40;;;2.70;;
4138;SDS011;2083;51.034;6.996;2022-07-05T05:21:42;2.77;;;2.63;;
4138;SDS011;2083;51.034;6.996;2022-07-05T05:24:08;2.73;;;2.43;;
4138;SDS011;2083;51.034;6.996;2022-07-05T05:26:34;2.30;;;2.20;;
4138;SDS011;2083;51.034;6.996;2022-07-05T05:29:00;2.23;;;2.13;;
4138;SDS011;2083;51.034;6.996;2022-07-05T05:31:26;2.57;;;2.20;;
4138;SDS011;2083;51.034;6.996;2022-07-05T05:33:52;2.50;;;2.40;;
4138;SDS011;2083;51.034;6.996;2022-07-05T05:36:18;2.10;;;1.90;;
4138;SDS011;2083;51.034;6.996;2022-07-05T05:38:44;3.13;;;1.97;;
4138;SDS011;2083;51.034;6.996;2022-07-05T05:41:10;2.40;;;1.87;;
4138;SDS011;2083;51.034;6.996;2022-07-05T05:43:36;2.57;;;2.40;;
4138;SDS011;2083;51.034;6.996;2022-07-05T05:46:02;3.43;;;2.03;;
4138;SDS011;2083;51.034;6.996;2022-07-05T05:48:28;2.80;;;2.30;;
4138;SDS011;2083;51.034;6.996;2022-07-05T05:50:54;4.00;;;1.53;;
4138;SDS011;2083;51.034;6.996;2022-07-05T05:53:21;2.47;;;2.27;;
4138;SDS011;2083;51.034;6.996;2022-07-05T05:55:47;1.97;;;1.83;;
4138;SDS011;2083;51.034;6.996;2022-07-05T05:58:14;1.53;;;1.43;;
4138;SDS011;2083;51.034;6.996;2022-07-05T06:00:40;3.93;;;1.80;;
4138;SDS011;2083;51.034;6.996;2022-07-05T06:03:06;2.70;;;1.33;;
4138;SDS011;2083;51.034;6.996;2022-07-05T06:05:32;0.70;;;0.47;;
4138;SDS011;2083;51.034;6.996;2022-07-05T06:07:59;2.00;;;1.40;;
4138;SDS011;2083;51.034;6.996;2022-07-05T06:10:25;3.03;;;1.73;;
4138;SDS011;2083;51.034;6.996;2022-07-05T06:12:52;4.17;;;1.53;;
4138;SDS011;2083;51.034;6.996;2022-07-05T06:15:18;3.43;;;1.70;;
4138;SDS011;2083;51.034;6.996;2022-07-05T06:17:44;1.63;;;1.53;;
4138;SDS011;2083;51.034;6.996;2022-07-05T06:20:13;3.53;;;1.77;;
4138;SDS011;2083;51.034;6.996;2022-07-05T06:22:39;3.70;;;1.77;;
4138;SDS011;2083;51.034;6.996;2022-07-05T06:25:05;6.67;;;1.90;;
4138;SDS011;2083;51.034;6.996;2022-07-05T06:27:31;2.00;;;1.90;;
4138;SDS011;2083;51.034;6.996;2022-07-05T06:29:57;2.33;;;1.83;;
4138;SDS011;2083;51.034;6.996;2022-07-05T06:32:23;3.13;;;1.97;;
4138;SDS011;2083;51.034;6.996;2022-07-05T06:34:49;1.80;;;1.70;;
4138;SDS011;2083;51.034;6.996;2022-07-05T06:37:15;3.33;;;2.00;;
4138;SDS011;2083;51.034;6.996;2022-07-05T06:39:41;7.03;;;1.80;;
4138;SDS011;2083;51.034;6.996;2022-07-05T06:42:07;5.10;;;1.73;;
4138;SDS011;2083;51.034;6.996;2022-07-05T06:44:33;3.40;;;1.83;;
4138;SDS011;2083;51.034;6.996;2022-07-05T06:46:59;2.77;;;2.23;;
4138;SDS011;2083;51.034;6.996;2022-07-05T06:49:25;2.33;;;2.13;;
4138;SDS011;2083;51.034;6.996;2022-07-05T06:51:51;2.37;;;1.77;;
4138;SDS011;2083;51.034;6.996;2022-07-05T06:54:17;3.20;;;1.60;;
4138;SDS011;2083;51.034;6.996;2022-07-05T06:56:43;3.83;;;1.30;;
4138;SDS011;2083;51.034;6.996;2022-07-05T06:59:09;1.67;;;1.57;;
4138;SDS011;2083;51.034;6.996;2022-07-05T07:01:35;1.33;;;1.23;;
4138;SDS011;2083;51.034;6.996;2022-07-05T07:04:01;1.57;;;1.47;;
4138;SDS011;2083;51.034;6.996;2022-07-05T07:06:26;3.17;;;1.70;;
4138;SDS011;2083;51.034;6.996;2022-07-05T07:08:52;2.50;;;1.77;;
4138;SDS011;2083;51.034;6.996;2022-07-05T07:11:37;1.67;;;1.40;;
4138;SDS011;2083;51.034;6.996;2022-07-05T07:14:03;2.03;;;1.83;;
4138;SDS011;2083;51.034;6.996;2022-07-05T07:16:29;5.90;;;1.57;;
4138;SDS011;2083;51.034;6.996;2022-07-05T07:18:55;1.57;;;1.47;;
4138;SDS011;2083;51.034;6.996;2022-07-05T07:21:22;1.63;;;1.43;;
4138;SDS011;2083;51.034;6.996;2022-07-05T07:23:48;4.30;;;1.63;;
4138;SDS011;2083;51.034;6.996;2022-07-05T07:26:14;2.60;;;1.10;;
4138;SDS011;2083;51.034;6.996;2022-07-05T07:28:40;3.53;;;1.63;;
4138;SDS011;2083;51.034;6.996;2022-07-05T07:31:06;1.70;;;1.60;;
4138;SDS011;2083;51.034;6.996;2022-07-05T07:33:32;2.80;;;1.60;;
4138;SDS011;2083;51.034;6.996;2022-07-05T07:35:58;1.47;;;1.37;;
4138;SDS011;2083;51.034;6.996;2022-07-05T07:38:26;2.20;;;1.27;;
4138;SDS011;2083;51.034;6.996;2022-07-05T07:40:54;3.30;;;1.70;;
4138;SDS011;2083;51.034;6.996;2022-07-05T07:43:20;2.70;;;1.60;;
4138;SDS011;2083;51.034;6.996;2022-07-05T07:45:47;4.63;;;1.27;;
4138;SDS011;2083;51.034;6.996;2022-07-05T07:48:13;2.10;;;1.90;;
4138;SDS011;2083;51.034;6.996;2022-07-05T07:50:39;5.40;;;1.60;;
4138;SDS011;2083;51.034;6.996;2022-07-05T07:53:04;1.83;;;1.73;;
4138;SDS011;2083;51.034;6.996;2022-07-05T07:55:30;4.83;;;2.00;;
4138;SDS011;2083;51.034;6.996;2022-07-05T07:57:56;2.20;;;2.00;;
4138;SDS011;2083;51.034;6.996;2022-07-05T08:00:22;2.83;;;1.70;;
4138;SDS011;2083;51.034;6.996;2022-07-05T08:02:48;3.27;;;1.73;;
4138;SDS011;2083;51.034;6.996;2022-07-05T08:05:14;1.70;;;1.60;;
4138;SDS011;2083;51.034;6.996;2022-07-05T08:07:40;3.83;;;1.60;;
4138;SDS011;2083;51.034;6.996;2022-07-05T08:10:07;4.30;;;1.60;;
4138;SDS011;2083;51.034;6.996;2022-07-05T08:12:33;3.40;;;1.40;;
4138;SDS011;2083;51.034;6.996;2022-07-05T08:14:59;0.50;;;0.30;;
4138;SDS011;2083;51.034;6.996;2022-07-05T08:17:25;0.50;;;0.30;;
4138;SDS011;2083;51.034;6.996;2022-07-05T08:19:51;0.60;;;0.43;;
4138;SDS011;2083;51.034;6.996;2022-07-05T08:22:36;1.77;;;1.67;;
4138;SDS011;2083;51.034;6.996;2022-07-05T08:25:02;4.70;;;1.80;;
4138;SDS011;2083;51.034;6.996;2022-07-05T08:27:28;1.40;;;1.30;;
4138;SDS011;2083;51.034;6.996;2022-07-05T08:29:54;2.03;;;1.17;;
4138;SDS011;2083;51.034;6.996;2022-07-05T08:32:20;3.00;;;1.30;;
4138;SDS011;2083;51.034;6.996;2022-07-05T08:34:46;2.77;;;2.13;;
4138;SDS011;2083;51.034;6.996;2022-07-05T08:37:12;3.93;;;1.70;;
4138;SDS011;2083;51.034;6.996;2022-07-05T08:39:37;4.23;;;1.60;;
4138;SDS011;2083;51.034;6.996;2022-07-05T08:42:03;1.83;;;1.67;;
4138;SDS011;2083;51.034;6.996;2022-07-05T08:44:34;1.90;;;1.80;;
4138;SDS011;2083;51.034;6.996;2022-07-05T08:47:03;1.67;;;1.57;;
4138;SDS011;2083;51.034;6.996;2022-07-05T08:49:33;12.13;;;3.50;;
4138;SDS011;2083;51.034;6.996;2022-07-05T08:52:00;6.17;;;3.27;;
4138;SDS011;2083;51.034;6.996;2022-07-05T08:54:29;4.50;;;4.10;;
4138;SDS011;2083;51.034;6.996;2022-07-05T08:56:55;4.10;;;3.80;;
4138;SDS011;2083;51.034;6.996;2022-07-05T08:59:21;4.27;;;3.87;;
4138;SDS011;2083;51.034;6.996;2022-07-05T09:01:47;5.30;;;3.47;;
4138;SDS011;2083;51.034;6.996;2022-07-05T09:04:14;3.73;;;3.43;;
4138;SDS011;2083;51.034;6.996;2022-07-05T09:06:41;2.80;;;2.70;;
4138;SDS011;2083;51.034;6.996;2022-07-05T09:09:09;4.70;;;4.17;;
4138;SDS011;2083;51.034;6.996;2022-07-05T09:14:02;4.13;;;3.20;;
4138;SDS011;2083;51.034;6.996;2022-07-05T09:16:30;4.10;;;2.50;;
4138;SDS011;2083;51.034;6.996;2022-07-05T09:19:03;2.30;;;2.10;;
4138;SDS011;2083;51.034;6.996;2022-07-05T09:21:30;2.13;;;2.03;;
4138;SDS011;2083;51.034;6.996;2022-07-05T09:27:04;0.60;;;0.30;;
4138;SDS011;2083;51.034;6.996;2022-07-05T09:29:22;3.80;;;1.97;;
4138;SDS011;2083;51.034;6.996;2022-07-05T09:31:48;3.80;;;2.13;;
4138;SDS011;2083;51.034;6.996;2022-07-05T09:34:18;3.67;;;2.50;;
4138;SDS011;2083;51.034;6.996;2022-07-05T09:39:13;2.60;;;2.50;;
4138;SDS011;2083;51.034;6.996;2022-07-05T09:41:41;2.30;;;2.10;;
4138;SDS011;2083;51.034;6.996;2022-07-05T09:44:07;3.87;;;1.80;;
4138;SDS011;2083;51.034;6.996;2022-07-05T09:46:33;3.23;;;1.67;;
4138;SDS011;2083;51.034;6.996;2022-07-05T09:48:59;2.90;;;1.60;;
4138;SDS011;2083;51.034;6.996;2022-07-05T09:51:25;1.43;;;1.33;;
4138;SDS011;2083;51.034;6.996;2022-07-05T09:53:53;2.00;;;1.90;;
4138;SDS011;2083;51.034;6.996;2022-07-05T09:56:19;2.23;;;1.57;;
4138;SDS011;2083;51.034;6.996;2022-07-05T09:58:46;4.87;;;1.50;;
4138;SDS011;2083;51.034;6.996;2022-07-05T10:01:26;1.23;;;1.13;;
4138;SDS011;2083;51.034;6.996;2022-07-05T10:03:56;2.40;;;1.83;;
4138;SDS011;2083;51.034;6.996;2022-07-05T10:06:23;1.23;;;1.13;;
4138;SDS011;2083;51.034;6.996;2022-07-05T10:08:49;4.87;;;2.70;;
4138;SDS011;2083;51.034;6.996;2022-07-05T10:11:19;5.87;;;1.50;;
4138;SDS011;2083;51.034;6.996;2022-07-05T10:13:48;1.60;;;1.50;;
4138;SDS011;2083;51.034;6.996;2022-07-05T10:16:15;3.90;;;1.53;;
4138;SDS011;2083;51.034;6.996;2022-07-05T10:18:43;2.70;;;1.60;;
4138;SDS011;2083;51.034;6.996;2022-07-05T10:21:12;2.87;;;1.70;;
4138;SDS011;2083;51.034;6.996;2022-07-05T10:23:41;5.23;;;1.60;;
4138;SDS011;2083;51.034;6.996;2022-07-05T10:26:08;2.63;;;1.20;;
4138;SDS011;2083;51.034;6.996;2022-07-05T10:28:34;2.50;;;1.50;;
4138;SDS011;2083;51.034;6.996;2022-07-05T10:31:01;2.10;;;1.50;;
4138;SDS011;2083;51.034;6.996;2022-07-05T10:33:27;2.40;;;1.90;;
4138;SDS011;2083;51.034;6.996;2022-07-05T10:35:54;1.67;;;1.37;;
4138;SDS011;2083;51.034;6.996;2022-07-05T10:38:20;2.03;;;1.70;;
4138;SDS011;2083;51.034;6.996;2022-07-05T10:40:47;2.17;;;2.00;;
4138;SDS011;2083;51.034;6.996;2022-07-05T10:43:14;2.40;;;2.20;;
4138;SDS011;2083;51.034;6.996;2022-07-05T10:45:40;3.23;;;2.37;;
4138;SDS011;2083;51.034;6.996;2022-07-05T10:48:12;4.27;;;1.60;;
4138;SDS011;2083;51.034;6.996;2022-07-05T10:53:18;1.77;;;1.67;;
4138;SDS011;2083;51.034;6.996;2022-07-05T10:55:51;3.53;;;1.40;;
4138;SDS011;2083;51.034;6.996;2022-07-05T11:00:44;1.60;;;1.50;;
4138;SDS011;2083;51.034;6.996;2022-07-05T11:05:56;8.00;;;1.60;;
4138;SDS011;2083;51.034;6.996;2022-07-05T11:08:21;1.97;;;1.77;;
4138;SDS011;2083;51.034;6.996;2022-07-05T11:11:07;3.97;;;1.80;;
4138;SDS011;2083;51.034;6.996;2022-07-05T11:13:37;2.63;;;2.10;;
4138;SDS011;2083;51.034;6.996;2022-07-05T11:19:15;2.40;;;2.30;;
4138;SDS011;2083;51.034;6.996;2022-07-05T11:22:01;8.53;;;2.30;;
4138;SDS011;2083;51.034;6.996;2022-07-05T11:24:29;2.00;;;1.80;;
4138;SDS011;2083;51.034;6.996;2022-07-05T11:26:59;8.00;;;1.80;;
4138;SDS011;2083;51.034;6.996;2022-07-05T11:32:10;1.80;;;1.70;;
4138;SDS011;2083;51.034;6.996;2022-07-05T11:34:38;2.73;;;1.83;;
4138;SDS011;2083;51.034;6.996;2022-07-05T11:39:44;1.60;;;1.50;;
4138;SDS011;2083;51.034;6.996;2022-07-05T11:42:11;5.10;;;1.80;;
4138;SDS011;2083;51.034;6.996;2022-07-05T11:44:37;2.37;;;2.20;;
4138;SDS011;2083;51.034;6.996;2022-07-05T11:47:05;1.80;;;1.70;;
4138;SDS011;2083;51.034;6.996;2022-07-05T11:49:31;6.93;;;3.37;;
4138;SDS011;2083;51.034;6.996;2022-07-05T11:51:58;6.10;;;1.50;;
4138;SDS011;2083;51.034;6.996;2022-07-05T11:54:28;3.00;;;1.67;;
4138;SDS011;2083;51.034;6.996;2022-07-05T11:56:54;4.60;;;2.13;;
4138;SDS011;2083;51.034;6.996;2022-07-05T11:59:21;1.60;;;1.50;;
4138;SDS011;2083;51.034;6.996;2022-07-05T12:01:47;3.00;;;1.67;;
4138;SDS011;2083;51.034;6.996;2022-07-05T12:04:26;4.40;;;1.40;;
4138;SDS011;2083;51.034;6.996;2022-07-05T12:06:53;2.13;;;1.40;;
4138;SDS011;2083;51.034;6.996;2022-07-05T12:09:27;4.50;;;1.30;;
4138;SDS011;2083;51.034;6.996;2022-07-05T12:12:17;3.50;;;1.50;;
4138;SDS011;2083;51.034;6.996;2022-07-05T12:15:01;3.10;;;1.37;;
4138;SDS011;2083;51.034;6.996;2022-07-05T12:17:28;4.10;;;1.43;;
4138;SDS011;2083;51.034;6.996;2022-07-05T12:19:54;1.67;;;1.20;;
4138;SDS011;2083;51.034;6.996;2022-07-05T12:22:30;2.23;;;1.43;;
4138;SDS011;2083;51.034;6.996;2022-07-05T12:24:56;6.23;;;1.53;;
4138;SDS011;2083;51.034;6.996;2022-07-05T12:27:24;1.93;;;1.30;;
4138;SDS011;2083;51.034;6.996;2022-07-05T12:29:55;6.20;;;1.30;;
4138;SDS011;2083;51.034;6.996;2022-07-05T12:32:21;2.63;;;1.47;;
4138;SDS011;2083;51.034;6.996;2022-07-05T12:34:47;1.50;;;1.40;;
4138;SDS011;2083;51.034;6.996;2022-07-05T12:37:23;3.43;;;1.60;;
4138;SDS011;2083;51.034;6.996;2022-07-05T12:39:49;2.40;;;1.37;;
4138;SDS011;2083;51.034;6.996;2022-07-05T12:42:31;8.93;;;2.37;;
4138;SDS011;2083;51.034;6.996;2022-07-05T12:47:53;1.80;;;1.70;;
4138;SDS011;2083;51.034;6.996;2022-07-05T12:50:19;5.87;;;2.27;;
4138;SDS011;2083;51.034;6.996;2022-07-05T12:53:04;3.47;;;2.50;;
4138;SDS011;2083;51.034;6.996;2022-07-05T12:55:49;2.60;;;2.00;;
4138;SDS011;2083;51.034;6.996;2022-07-05T13:03:54;1.83;;;1.73;;
4138;SDS011;2083;51.034;6.996;2022-07-05T13:06:21;3.50;;;2.30;;
4138;SDS011;2083;51.034;6.996;2022-07-05T13:08:57;1.83;;;1.60;;
4138;SDS011;2083;51.034;6.996;2022-07-05T13:11:32;4.80;;;2.20;;
4138;SDS011;2083;51.034;6.996;2022-07-05T13:13:58;3.57;;;1.50;;
4138;SDS011;2083;51.034;6.996;2022-07-05T13:16:24;4.10;;;1.77;;
4138;SDS011;2083;51.034;6.996;2022-07-05T13:18:50;1.80;;;1.70;;
4138;SDS011;2083;51.034;6.996;2022-07-05T13:21:16;6.93;;;1.57;;
4138;SDS011;2083;51.034;6.996;2022-07-05T13:23:42;2.00;;;1.90;;
4138;SDS011;2083;51.034;6.996;2022-07-05T13:26:09;3.33;;;1.47;;
4138;SDS011;2083;51.034;6.996;2022-07-05T13:28:35;2.30;;;2.10;;
4138;SDS011;2083;51.034;6.996;2022-07-05T13:31:01;1.87;;;1.77;;
4138;SDS011;2083;51.034;6.996;2022-07-05T13:33:27;3.07;;;1.77;;
4138;SDS011;2083;51.034;6.996;2022-07-05T13:35:53;5.33;;;1.57;;
4138;SDS011;2083;51.034;6.996;2022-07-05T13:38:19;3.80;;;1.87;;
4138;SDS011;2083;51.034;6.996;2022-07-05T13:40:45;7.43;;;1.80;;
4138;SDS011;2083;51.034;6.996;2022-07-05T13:43:11;2.40;;;2.20;;
4138;SDS011;2083;51.034;6.996;2022-07-05T13:45:37;6.37;;;2.07;;
4138;SDS011;2083;51.034;6.996;2022-07-05T13:48:03;1.80;;;1.70;;
4138;SDS011;2083;51.034;6.996;2022-07-05T13:50:29;1.70;;;1.60;;
4138;SDS011;2083;51.034;6.996;2022-07-05T13:52:58;2.17;;;1.50;;
4138;SDS011;2083;51.034;6.996;2022-07-05T13:55:24;2.03;;;1.63;;
4138;SDS011;2083;51.034;6.996;2022-07-05T13:57:50;3.57;;;1.53;;
4138;SDS011;2083;51.034;6.996;2022-07-05T14:00:16;2.07;;;1.80;;
4138;SDS011;2083;51.034;6.996;2022-07-05T14:02:43;1.90;;;1.80;;
4138;SDS011;2083;51.034;6.996;2022-07-05T14:05:09;2.67;;;2.57;;
4138;SDS011;2083;51.034;6.996;2022-07-05T14:07:35;1.73;;;1.63;;
4138;SDS011;2083;51.034;6.996;2022-07-05T14:10:02;2.97;;;2.03;;
4138;SDS011;2083;51.034;6.996;2022-07-05T14:12:28;2.10;;;1.90;;
4138;SDS011;2083;51.034;6.996;2022-07-05T14:14:54;3.67;;;2.10;;
4138;SDS011;2083;51.034;6.996;2022-07-05T14:17:20;3.87;;;2.07;;
4138;SDS011;2083;51.034;6.996;2022-07-05T14:19:46;3.53;;;1.60;;
4138;SDS011;2083;51.034;6.996;2022-07-05T14:22:12;1.57;;;1.47;;
4138;SDS011;2083;51.034;6.996;2022-07-05T14:24:38;2.10;;;1.37;;
4138;SDS011;2083;51.034;6.996;2022-07-05T14:27:04;3.00;;;1.43;;
4138;SDS011;2083;51.034;6.996;2022-07-05T14:29:33;2.37;;;1.47;;
4138;SDS011;2083;51.034;6.996;2022-07-05T14:31:59;3.43;;;1.80;;
4138;SDS011;2083;51.034;6.996;2022-07-05T14:34:25;4.20;;;1.67;;
4138;SDS011;2083;51.034;6.996;2022-07-05T14:36:53;1.73;;;1.63;;
4138;SDS011;2083;51.034;6.996;2022-07-05T14:39:19;2.50;;;1.33;;
4138;SDS011;2083;51.034;6.996;2022-07-05T14:41:46;1.80;;;1.70;;
4138;SDS011;2083;51.034;6.996;2022-07-05T14:44:11;0.60;;;0.43;;
4138;SDS011;2083;51.034;6.996;2022-07-05T14:46:38;1.30;;;1.20;;
4138;SDS011;2083;51.034;6.996;2022-07-05T14:49:04;5.13;;;1.67;;
4138;SDS011;2083;51.034;6.996;2022-07-05T14:51:30;2.90;;;2.23;;
4138;SDS011;2083;51.034;6.996;2022-07-05T14:53:56;4.73;;;1.63;;
4138;SDS011;2083;51.034;6.996;2022-07-05T14:56:22;2.70;;;1.70;;
4138;SDS011;2083;51.034;6.996;2022-07-05T14:58:48;0.60;;;0.50;;
4138;SDS011;2083;51.034;6.996;2022-07-05T15:01:14;0.60;;;0.30;;
4138;SDS011;2083;51.034;6.996;2022-07-05T15:03:40;0.60;;;0.40;;
4138;SDS011;2083;51.034;6.996;2022-07-05T15:06:06;0.60;;;0.30;;
4138;SDS011;2083;51.034;6.996;2022-07-05T15:08:34;0.70;;;0.57;;
4138;SDS011;2083;51.034;6.996;2022-07-05T15:11:00;0.80;;;0.63;;
4138;SDS011;2083;51.034;6.996;2022-07-05T15:13:26;0.60;;;0.50;;
4138;SDS011;2083;51.034;6.996;2022-07-05T15:15:53;0.60;;;0.30;;
4138;SDS011;2083;51.034;6.996;2022-07-05T15:18:21;0.60;;;0.30;;
4138;SDS011;2083;51.034;6.996;2022-07-05T15:20:47;0.60;;;0.40;;
4138;SDS011;2083;51.034;6.996;2022-07-05T15:23:15;0.60;;;0.40;;
4138;SDS011;2083;51.034;6.996;2022-07-05T15:25:41;0.60;;;0.30;;
4138;SDS011;2083;51.034;6.996;2022-07-05T15:28:07;0.60;;;0.40;;
4138;SDS011;2083;51.034;6.996;2022-07-05T15:30:38;3.77;;;0.80;;
4138;SDS011;2083;51.034;6.996;2022-07-05T15:33:04;0.60;;;0.40;;
4138;SDS011;2083;51.034;6.996;2022-07-05T15:35:32;1.13;;;0.97;;
4138;SDS011;2083;51.034;6.996;2022-07-05T15:37:58;0.90;;;0.77;;
4138;SDS011;2083;51.034;6.996;2022-07-05T15:40:24;0.60;;;0.30;;
4138;SDS011;2083;51.034;6.996;2022-07-05T15:42:50;0.60;;;0.30;;
4138;SDS011;2083;51.034;6.996;2022-07-05T15:45:16;0.80;;;0.60;;
4138;SDS011;2083;51.034;6.996;2022-07-05T15:47:42;3.60;;;2.57;;